sensor_id;sensor_type;location;lat;lon;timestamp;pressure;altitude;pressure_sealevel;temperature;humidity
47811;BME280;33575;52.600;7.318;2023-01-29T00:00:46;102717.56;;;1.86;86.45
47811;BME280;33575;52.600;7.318;2023-01-29T00:03:16;102717.21;;;1.84;86.39
47811;BME280;33575;52.600;7.318;2023-01-29T00:05:46;102718.87;;;1.81;86.09
47811;BME280;33575;52.600;7.318;2023-01-29T00:08:16;102719.68;;;1.79;86.33
47811;BME280;33575;52.600;7.318;2023-01-29T00:10:47;102716.23;;;1.78;85.99
47811;BME280;33575;52.600;7.318;2023-01-29T00:13:17;102712.64;;;1.78;86.28
47811;BME280;33575;52.600;7.318;2023-01-29T00:15:53;102710.77;;;1.78;86.15
47811;BME280;33575;52.600;7.318;2023-01-29T00:18:19;102707.19;;;1.82;85.88
47811;BME280;33575;52.600;7.318;2023-01-29T00:20:49;102704.97;;;1.80;86.02
47811;BME280;33575;52.600;7.318;2023-01-29T00:23:20;102696.88;;;1.79;86.08
47811;BME280;33575;52.600;7.318;2023-01-29T00:25:50;102692.85;;;1.79;86.38
47811;BME280;33575;52.600;7.318;2023-01-29T00:28:20;102692.61;;;1.78;86.50
47811;BME280;33575;52.600;7.318;2023-01-29T00:30:51;102680.92;;;1.81;86.22
47811;BME280;33575;52.600;7.318;2023-01-29T00:33:21;102676.23;;;1.80;86.58
47811;BME280;33575;52.600;7.318;2023-01-29T00:35:52;102669.10;;;1.85;86.38
47811;BME280;33575;52.600;7.318;2023-01-29T00:38:22;102661.76;;;1.87;86.62
47811;BME280;33575;52.600;7.318;2023-01-29T00:40:53;102658.87;;;1.80;87.13
47811;BME280;33575;52.600;7.318;2023-01-29T00:43:24;102655.64;;;1.84;86.91
47811;BME280;33575;52.600;7.318;2023-01-29T00:45:53;102648.63;;;1.83;87.08
47811;BME280;33575;52.600;7.318;2023-01-29T00:48:24;102654.81;;;1.87;86.85
47811;BME280;33575;52.600;7.318;2023-01-29T00:50:54;102659.92;;;1.90;86.98
47811;BME280;33575;52.600;7.318;2023-01-29T00:53:25;102667.59;;;1.95;86.84
47811;BME280;33575;52.600;7.318;2023-01-29T00:55:55;102673.61;;;1.97;86.63
47811;BME280;33575;52.600;7.318;2023-01-29T00:58:25;102678.17;;;1.99;86.26
47811;BME280;33575;52.600;7.318;2023-01-29T01:00:56;102675.59;;;1.92;85.71
47811;BME280;33575;52.600;7.318;2023-01-29T01:03:27;102671.58;;;1.85;86.04
47811;BME280;33575;52.600;7.318;2023-01-29T01:06:03;102677.14;;;1.88;86.62
47811;BME280;33575;52.600;7.318;2023-01-29T01:08:28;102681.34;;;1.92;85.70
47811;BME280;33575;52.600;7.318;2023-01-29T01:11:00;102682.91;;;1.94;85.79
47811;BME280;33575;52.600;7.318;2023-01-29T01:13:30;102679.36;;;1.97;86.27
47811;BME280;33575;52.600;7.318;2023-01-29T01:16:00;102680.22;;;1.91;86.01
47811;BME280;33575;52.600;7.318;2023-01-29T01:18:30;102680.21;;;1.95;85.59
47811;BME280;33575;52.600;7.318;2023-01-29T01:21:01;102679.18;;;1.95;85.79
47811;BME280;33575;52.600;7.318;2023-01-29T01:23:31;102681.09;;;1.97;85.91
47811;BME280;33575;52.600;7.318;2023-01-29T01:26:02;102682.98;;;1.99;85.81
47811;BME280;33575;52.600;7.318;2023-01-29T01:28:32;102688.39;;;1.98;85.50
47811;BME280;33575;52.600;7.318;2023-01-29T01:31:08;102687.53;;;1.99;85.81
47811;BME280;33575;52.600;7.318;2023-01-29T01:33:34;102678.25;;;2.04;85.72
47811;BME280;33575;52.600;7.318;2023-01-29T01:36:06;102672.10;;;2.09;85.59
47811;BME280;33575;52.600;7.318;2023-01-29T01:38:36;102669.09;;;2.15;85.67
47811;BME280;33575;52.600;7.318;2023-01-29T01:41:06;102669.33;;;2.15;86.09
47811;BME280;33575;52.600;7.318;2023-01-29T01:46:07;102673.98;;;2.25;86.13
47811;BME280;33575;52.600;7.318;2023-01-29T01:48:37;102678.60;;;2.37;85.94
47811;BME280;33575;52.600;7.318;2023-01-29T01:51:08;102673.51;;;2.28;86.06
47811;BME280;33575;52.600;7.318;2023-01-29T01:53:41;102667.07;;;2.33;86.18
47811;BME280;33575;52.600;7.318;2023-01-29T01:56:13;102670.76;;;2.41;85.85
47811;BME280;33575;52.600;7.318;2023-01-29T01:58:42;102674.30;;;2.47;85.79
47811;BME280;33575;52.600;7.318;2023-01-29T02:01:10;102671.33;;;2.50;85.33
47811;BME280;33575;52.600;7.318;2023-01-29T02:03:43;102667.18;;;2.47;84.23
47811;BME280;33575;52.600;7.318;2023-01-29T02:06:11;102672.52;;;2.41;84.74
47811;BME280;33575;52.600;7.318;2023-01-29T02:08:46;102671.37;;;2.35;84.52
47811;BME280;33575;52.600;7.318;2023-01-29T02:11:12;102674.79;;;2.35;85.32
47811;BME280;33575;52.600;7.318;2023-01-29T02:13:42;102674.36;;;2.35;85.08
47811;BME280;33575;52.600;7.318;2023-01-29T02:16:13;102673.24;;;2.34;84.47
47811;BME280;33575;52.600;7.318;2023-01-29T02:18:43;102671.91;;;2.29;84.63
47811;BME280;33575;52.600;7.318;2023-01-29T02:21:28;102676.72;;;2.24;85.02
47811;BME280;33575;52.600;7.318;2023-01-29T02:26:23;102681.58;;;2.27;85.63
47811;BME280;33575;52.600;7.318;2023-01-29T02:28:46;102683.28;;;2.31;84.75
47811;BME280;33575;52.600;7.318;2023-01-29T02:31:22;102686.50;;;2.32;84.75
47811;BME280;33575;52.600;7.318;2023-01-29T02:33:50;102693.46;;;2.31;85.48
47811;BME280;33575;52.600;7.318;2023-01-29T02:36:23;102697.59;;;2.37;85.10
47811;BME280;33575;52.600;7.318;2023-01-29T02:38:49;102700.32;;;2.39;84.88
47811;BME280;33575;52.600;7.318;2023-01-29T02:41:20;102697.85;;;2.41;84.81
47811;BME280;33575;52.600;7.318;2023-01-29T02:43:47;102694.74;;;2.43;85.42
47811;BME280;33575;52.600;7.318;2023-01-29T02:46:21;102694.01;;;2.44;86.01
47811;BME280;33575;52.600;7.318;2023-01-29T02:48:53;102700.22;;;2.42;86.76
47811;BME280;33575;52.600;7.318;2023-01-29T02:51:20;102699.85;;;2.55;94.29
47811;BME280;33575;52.600;7.318;2023-01-29T02:53:53;102691.09;;;2.47;89.06
47811;BME280;33575;52.600;7.318;2023-01-29T02:56:21;102687.58;;;2.36;86.69
47811;BME280;33575;52.600;7.318;2023-01-29T02:58:53;102687.53;;;2.24;85.85
47811;BME280;33575;52.600;7.318;2023-01-29T03:01:25;102684.76;;;2.05;85.99
47811;BME280;33575;52.600;7.318;2023-01-29T03:03:52;102676.03;;;2.01;86.48
47811;BME280;33575;52.600;7.318;2023-01-29T03:06:23;102664.72;;;1.97;86.77
47811;BME280;33575;52.600;7.318;2023-01-29T03:08:54;102657.74;;;1.90;86.99
47811;BME280;33575;52.600;7.318;2023-01-29T03:11:21;102656.89;;;1.91;87.13
47811;BME280;33575;52.600;7.318;2023-01-29T03:13:56;102656.23;;;1.87;87.73
47811;BME280;33575;52.600;7.318;2023-01-29T03:16:25;102652.72;;;1.89;87.47
47811;BME280;33575;52.600;7.318;2023-01-29T03:18:56;102647.56;;;1.90;88.04
47811;BME280;33575;52.600;7.318;2023-01-29T03:21:29;102640.71;;;1.91;88.46
47811;BME280;33575;52.600;7.318;2023-01-29T03:23:55;102634.66;;;1.97;88.49
47811;BME280;33575;52.600;7.318;2023-01-29T03:26:25;102630.71;;;2.02;88.35
47811;BME280;33575;52.600;7.318;2023-01-29T03:28:55;102625.83;;;2.06;88.12
47811;BME280;33575;52.600;7.318;2023-01-29T03:31:26;102617.94;;;2.07;87.96
47811;BME280;33575;52.600;7.318;2023-01-29T03:34:00;102609.69;;;2.07;87.97
47811;BME280;33575;52.600;7.318;2023-01-29T03:36:29;102606.81;;;2.11;87.73
47811;BME280;33575;52.600;7.318;2023-01-29T03:38:56;102599.57;;;2.12;87.81
47811;BME280;33575;52.600;7.318;2023-01-29T03:41:31;102594.82;;;2.05;87.74
47811;BME280;33575;52.600;7.318;2023-01-29T03:44:04;102590.74;;;2.02;87.76
47811;BME280;33575;52.600;7.318;2023-01-29T03:46:31;102589.54;;;2.01;87.88
47811;BME280;33575;52.600;7.318;2023-01-29T03:49:01;102585.07;;;2.03;87.71
47811;BME280;33575;52.600;7.318;2023-01-29T03:51:32;102591.37;;;2.04;87.59
47811;BME280;33575;52.600;7.318;2023-01-29T03:54:06;102586.16;;;1.92;88.53
47811;BME280;33575;52.600;7.318;2023-01-29T03:56:38;102579.67;;;1.89;88.81
47811;BME280;33575;52.600;7.318;2023-01-29T03:59:03;102569.57;;;1.91;88.44
47811;BME280;33575;52.600;7.318;2023-01-29T04:01:34;102569.02;;;1.92;88.85
47811;BME280;33575;52.600;7.318;2023-01-29T04:04:04;102573.49;;;1.93;88.94
47811;BME280;33575;52.600;7.318;2023-01-29T04:06:33;102570.01;;;1.85;88.99
47811;BME280;33575;52.600;7.318;2023-01-29T04:09:05;102565.74;;;1.91;88.64
47811;BME280;33575;52.600;7.318;2023-01-29T04:11:35;102568.43;;;1.89;88.90
47811;BME280;33575;52.600;7.318;2023-01-29T04:14:03;102570.52;;;1.91;89.05
47811;BME280;33575;52.600;7.318;2023-01-29T04:16:37;102568.21;;;1.89;88.46
47811;BME280;33575;52.600;7.318;2023-01-29T04:19:05;102565.89;;;1.89;88.40
47811;BME280;33575;52.600;7.318;2023-01-29T04:21:34;102565.70;;;1.86;88.79
47811;BME280;33575;52.600;7.318;2023-01-29T04:24:05;102559.12;;;1.82;89.41
47811;BME280;33575;52.600;7.318;2023-01-29T04:26:48;102551.72;;;1.89;88.75
47811;BME280;33575;52.600;7.318;2023-01-29T04:29:17;102546.32;;;1.91;88.23
47811;BME280;33575;52.600;7.318;2023-01-29T04:31:43;102549.32;;;1.95;88.22
47811;BME280;33575;52.600;7.318;2023-01-29T04:34:12;102549.42;;;1.95;88.24
47811;BME280;33575;52.600;7.318;2023-01-29T04:36:41;102551.82;;;1.94;88.15
47811;BME280;33575;52.600;7.318;2023-01-29T04:39:11;102551.05;;;1.95;88.22
47811;BME280;33575;52.600;7.318;2023-01-29T04:41:45;102549.08;;;1.98;88.40
47811;BME280;33575;52.600;7.318;2023-01-29T04:44:14;102548.47;;;1.95;88.19
47811;BME280;33575;52.600;7.318;2023-01-29T04:46:46;102546.97;;;2.00;88.23
47811;BME280;33575;52.600;7.318;2023-01-29T04:49:16;102545.52;;;2.02;88.55
47811;BME280;33575;52.600;7.318;2023-01-29T04:51:47;102544.63;;;2.02;88.56
47811;BME280;33575;52.600;7.318;2023-01-29T04:54:16;102545.04;;;1.96;88.79
47811;BME280;33575;52.600;7.318;2023-01-29T04:56:46;102549.92;;;1.89;89.63
47811;BME280;33575;52.600;7.318;2023-01-29T04:59:16;102548.35;;;2.01;88.79
47811;BME280;33575;52.600;7.318;2023-01-29T05:01:42;102549.50;;;1.96;89.13
47811;BME280;33575;52.600;7.318;2023-01-29T05:04:14;102550.53;;;2.05;88.71
47811;BME280;33575;52.600;7.318;2023-01-29T05:06:42;102551.77;;;2.09;88.44
47811;BME280;33575;52.600;7.318;2023-01-29T05:09:13;102551.07;;;2.11;88.73
47811;BME280;33575;52.600;7.318;2023-01-29T05:11:44;102549.31;;;2.16;88.48
47811;BME280;33575;52.600;7.318;2023-01-29T05:14:16;102552.28;;;2.21;88.14
47811;BME280;33575;52.600;7.318;2023-01-29T05:16:46;102556.92;;;2.20;88.16
47811;BME280;33575;52.600;7.318;2023-01-29T05:19:15;102554.96;;;2.25;87.87
47811;BME280;33575;52.600;7.318;2023-01-29T05:21:47;102563.49;;;2.23;88.46
47811;BME280;33575;52.600;7.318;2023-01-29T05:24:18;102567.65;;;2.26;88.04
47811;BME280;33575;52.600;7.318;2023-01-29T05:26:48;102562.57;;;2.31;87.63
47811;BME280;33575;52.600;7.318;2023-01-29T05:29:16;102557.25;;;2.24;87.13
47811;BME280;33575;52.600;7.318;2023-01-29T05:31:46;102557.01;;;2.21;87.63
47811;BME280;33575;52.600;7.318;2023-01-29T05:34:16;102543.74;;;2.18;87.55
47811;BME280;33575;52.600;7.318;2023-01-29T05:36:47;102537.82;;;2.20;87.58
47811;BME280;33575;52.600;7.318;2023-01-29T05:39:18;102531.51;;;2.22;88.48
47811;BME280;33575;52.600;7.318;2023-01-29T05:41:49;102526.93;;;2.28;87.89
47811;BME280;33575;52.600;7.318;2023-01-29T05:44:19;102526.97;;;2.24;87.63
47811;BME280;33575;52.600;7.318;2023-01-29T05:46:49;102532.30;;;2.21;87.91
47811;BME280;33575;52.600;7.318;2023-01-29T05:49:20;102531.50;;;2.20;87.77
47811;BME280;33575;52.600;7.318;2023-01-29T05:51:50;102531.60;;;2.16;87.78
47811;BME280;33575;52.600;7.318;2023-01-29T05:54:20;102530.34;;;2.15;88.39
47811;BME280;33575;52.600;7.318;2023-01-29T05:56:51;102528.57;;;2.22;88.34
47811;BME280;33575;52.600;7.318;2023-01-29T05:59:21;102528.31;;;2.27;87.25
47811;BME280;33575;52.600;7.318;2023-01-29T06:01:51;102535.67;;;2.30;88.34
47811;BME280;33575;52.600;7.318;2023-01-29T06:04:22;102529.46;;;2.41;87.61
47811;BME280;33575;52.600;7.318;2023-01-29T06:06:52;102529.83;;;2.39;87.67
47811;BME280;33575;52.600;7.318;2023-01-29T06:09:23;102533.61;;;2.37;88.26
47811;BME280;33575;52.600;7.318;2023-01-29T06:11:53;102526.23;;;2.45;87.52
47811;BME280;33575;52.600;7.318;2023-01-29T06:14:23;102520.77;;;2.47;87.74
47811;BME280;33575;52.600;7.318;2023-01-29T06:16:54;102513.36;;;2.40;88.50
47811;BME280;33575;52.600;7.318;2023-01-29T06:19:24;102514.44;;;2.33;88.14
47811;BME280;33575;52.600;7.318;2023-01-29T06:21:54;102515.20;;;2.32;87.71
47811;BME280;33575;52.600;7.318;2023-01-29T06:24:25;102521.35;;;2.29;87.76
47811;BME280;33575;52.600;7.318;2023-01-29T06:26:55;102519.39;;;2.26;87.65
47811;BME280;33575;52.600;7.318;2023-01-29T06:29:26;102519.85;;;2.29;87.45
47811;BME280;33575;52.600;7.318;2023-01-29T06:31:56;102521.38;;;2.25;87.44
47811;BME280;33575;52.600;7.318;2023-01-29T06:34:26;102514.61;;;2.20;87.81
47811;BME280;33575;52.600;7.318;2023-01-29T06:36:57;102511.80;;;2.20;88.96
47811;BME280;33575;52.600;7.318;2023-01-29T06:39:28;102517.27;;;2.23;89.48
47811;BME280;33575;52.600;7.318;2023-01-29T06:41:58;102509.71;;;2.27;89.75
47811;BME280;33575;52.600;7.318;2023-01-29T06:44:28;102493.95;;;2.46;93.02
47811;BME280;33575;52.600;7.318;2023-01-29T06:46:58;102499.65;;;2.40;89.85
47811;BME280;33575;52.600;7.318;2023-01-29T06:49:29;102490.81;;;2.27;88.02
47811;BME280;33575;52.600;7.318;2023-01-29T06:51:59;102492.51;;;2.14;87.36
47811;BME280;33575;52.600;7.318;2023-01-29T06:54:29;102502.78;;;1.98;87.16
47811;BME280;33575;52.600;7.318;2023-01-29T06:57:00;102505.03;;;1.80;88.21
47811;BME280;33575;52.600;7.318;2023-01-29T06:59:30;102504.49;;;1.79;87.85
47811;BME280;33575;52.600;7.318;2023-01-29T07:02:02;102503.84;;;1.72;88.78
47811;BME280;33575;52.600;7.318;2023-01-29T07:04:31;102500.79;;;1.73;89.08
47811;BME280;33575;52.600;7.318;2023-01-29T07:07:01;102501.00;;;1.71;89.30
47811;BME280;33575;52.600;7.318;2023-01-29T07:09:31;102499.47;;;1.67;90.77
47811;BME280;33575;52.600;7.318;2023-01-29T07:12:02;102494.01;;;1.68;89.87
47811;BME280;33575;52.600;7.318;2023-01-29T07:14:32;102495.57;;;1.74;90.11
47811;BME280;33575;52.600;7.318;2023-01-29T07:17:02;102499.11;;;1.78;90.07
47811;BME280;33575;52.600;7.318;2023-01-29T07:19:33;102496.83;;;1.78;90.25
47811;BME280;33575;52.600;7.318;2023-01-29T07:22:04;102509.34;;;1.81;90.27
47811;BME280;33575;52.600;7.318;2023-01-29T07:24:34;102510.47;;;1.83;90.11
47811;BME280;33575;52.600;7.318;2023-01-29T07:27:04;102507.44;;;1.81;89.85
47811;BME280;33575;52.600;7.318;2023-01-29T07:29:34;102501.64;;;1.86;89.35
47811;BME280;33575;52.600;7.318;2023-01-29T07:32:04;102502.64;;;1.84;89.31
47811;BME280;33575;52.600;7.318;2023-01-29T07:34:35;102504.91;;;1.84;89.10
47811;BME280;33575;52.600;7.318;2023-01-29T07:37:05;102503.12;;;1.82;88.81
47811;BME280;33575;52.600;7.318;2023-01-29T07:39:35;102504.18;;;1.76;89.65
47811;BME280;33575;52.600;7.318;2023-01-29T07:42:06;102492.49;;;1.75;89.25
47811;BME280;33575;52.600;7.318;2023-01-29T07:44:36;102482.38;;;1.71;89.61
47811;BME280;33575;52.600;7.318;2023-01-29T07:47:06;102478.39;;;1.73;89.84
47811;BME280;33575;52.600;7.318;2023-01-29T07:49:37;102477.81;;;1.72;89.91
47811;BME280;33575;52.600;7.318;2023-01-29T07:52:07;102472.88;;;1.67;90.71
47811;BME280;33575;52.600;7.318;2023-01-29T07:54:37;102467.65;;;1.76;90.11
47811;BME280;33575;52.600;7.318;2023-01-29T07:57:07;102461.40;;;1.68;91.00
47811;BME280;33575;52.600;7.318;2023-01-29T07:59:38;102458.55;;;1.54;91.27
47811;BME280;33575;52.600;7.318;2023-01-29T08:02:09;102459.54;;;1.72;90.57
47811;BME280;33575;52.600;7.318;2023-01-29T08:04:39;102456.02;;;1.55;90.76
47811;BME280;33575;52.600;7.318;2023-01-29T08:07:09;102456.05;;;1.69;89.93
47811;BME280;33575;52.600;7.318;2023-01-29T08:09:40;102471.48;;;1.78;89.74
47811;BME280;33575;52.600;7.318;2023-01-29T08:12:10;102478.08;;;1.80;89.49
47811;BME280;33575;52.600;7.318;2023-01-29T08:14:40;102471.22;;;1.81;89.10
47811;BME280;33575;52.600;7.318;2023-01-29T08:17:11;102461.28;;;1.86;89.52
47811;BME280;33575;52.600;7.318;2023-01-29T08:19:41;102457.03;;;1.93;89.25
47811;BME280;33575;52.600;7.318;2023-01-29T08:22:11;102455.13;;;1.94;89.01
47811;BME280;33575;52.600;7.318;2023-01-29T08:24:46;102456.99;;;1.94;88.88
47811;BME280;33575;52.600;7.318;2023-01-29T08:27:12;102454.91;;;1.99;88.52
47811;BME280;33575;52.600;7.318;2023-01-29T08:29:42;102455.32;;;2.04;88.37
47811;BME280;33575;52.600;7.318;2023-01-29T08:32:13;102452.83;;;2.08;88.80
47811;BME280;33575;52.600;7.318;2023-01-29T08:34:43;102458.72;;;2.06;88.33
47811;BME280;33575;52.600;7.318;2023-01-29T08:37:13;102459.37;;;2.09;88.59
47811;BME280;33575;52.600;7.318;2023-01-29T08:39:43;102452.34;;;2.06;89.06
47811;BME280;33575;52.600;7.318;2023-01-29T08:42:13;102452.50;;;2.08;89.34
47811;BME280;33575;52.600;7.318;2023-01-29T08:44:44;102450.25;;;2.08;88.51
47811;BME280;33575;52.600;7.318;2023-01-29T08:47:14;102443.24;;;2.11;88.72
47811;BME280;33575;52.600;7.318;2023-01-29T08:49:44;102445.51;;;2.11;88.75
47811;BME280;33575;52.600;7.318;2023-01-29T08:52:14;102444.67;;;2.11;88.53
47811;BME280;33575;52.600;7.318;2023-01-29T08:54:45;102445.64;;;2.12;88.39
47811;BME280;33575;52.600;7.318;2023-01-29T08:57:16;102442.05;;;2.11;87.64
47811;BME280;33575;52.600;7.318;2023-01-29T08:59:46;102439.85;;;2.13;87.86
47811;BME280;33575;52.600;7.318;2023-01-29T09:02:16;102443.13;;;2.14;88.00
47811;BME280;33575;52.600;7.318;2023-01-29T09:04:47;102441.95;;;2.22;87.64
47811;BME280;33575;52.600;7.318;2023-01-29T09:07:18;102438.15;;;2.17;88.19
47811;BME280;33575;52.600;7.318;2023-01-29T09:09:48;102440.35;;;2.21;88.07
47811;BME280;33575;52.600;7.318;2023-01-29T09:12:18;102447.19;;;2.22;87.78
47811;BME280;33575;52.600;7.318;2023-01-29T09:14:48;102458.09;;;2.22;87.24
47811;BME280;33575;52.600;7.318;2023-01-29T09:17:19;102457.61;;;2.21;87.14
47811;BME280;33575;52.600;7.318;2023-01-29T09:19:49;102465.90;;;2.15;87.81
47811;BME280;33575;52.600;7.318;2023-01-29T09:22:20;102461.51;;;2.25;87.44
47811;BME280;33575;52.600;7.318;2023-01-29T09:24:50;102463.56;;;2.27;87.09
47811;BME280;33575;52.600;7.318;2023-01-29T09:27:21;102464.00;;;2.33;86.89
47811;BME280;33575;52.600;7.318;2023-01-29T09:29:51;102460.34;;;2.31;87.28
47811;BME280;33575;52.600;7.318;2023-01-29T09:32:27;102455.72;;;2.43;87.00
47811;BME280;33575;52.600;7.318;2023-01-29T09:34:53;102448.42;;;2.53;86.75
47811;BME280;33575;52.600;7.318;2023-01-29T09:37:23;102442.95;;;2.46;86.38
47811;BME280;33575;52.600;7.318;2023-01-29T09:39:53;102444.89;;;2.46;86.96
47811;BME280;33575;52.600;7.318;2023-01-29T09:42:27;102439.67;;;2.43;86.73
47811;BME280;33575;52.600;7.318;2023-01-29T09:45:00;102430.77;;;2.40;86.96
47811;BME280;33575;52.600;7.318;2023-01-29T09:47:26;102421.42;;;2.42;87.17
47811;BME280;33575;52.600;7.318;2023-01-29T09:49:56;102421.00;;;2.40;87.05
47811;BME280;33575;52.600;7.318;2023-01-29T09:52:26;102413.60;;;2.43;87.31
47811;BME280;33575;52.600;7.318;2023-01-29T09:54:59;102407.61;;;2.50;86.81
47811;BME280;33575;52.600;7.318;2023-01-29T09:57:30;102404.03;;;2.51;87.40
47811;BME280;33575;52.600;7.318;2023-01-29T09:59:55;102407.26;;;2.58;87.14
47811;BME280;33575;52.600;7.318;2023-01-29T10:05:09;102407.12;;;2.63;87.47
47811;BME280;33575;52.600;7.318;2023-01-29T10:07:42;102400.38;;;2.68;86.57
47811;BME280;33575;52.600;7.318;2023-01-29T10:10:07;102400.66;;;2.61;87.16
47811;BME280;33575;52.600;7.318;2023-01-29T10:12:37;102398.04;;;2.67;86.40
47811;BME280;33575;52.600;7.318;2023-01-29T10:15:05;102396.77;;;2.61;86.89
47811;BME280;33575;52.600;7.318;2023-01-29T10:17:37;102393.37;;;2.69;86.42
47811;BME280;33575;52.600;7.318;2023-01-29T10:20:10;102388.83;;;2.71;86.34
47811;BME280;33575;52.600;7.318;2023-01-29T10:25:02;102380.23;;;2.66;86.05
47811;BME280;33575;52.600;7.318;2023-01-29T10:27:32;102376.19;;;2.61;87.16
47811;BME280;33575;52.600;7.318;2023-01-29T10:30:02;102369.28;;;2.63;86.74
47811;BME280;33575;52.600;7.318;2023-01-29T10:32:30;102366.90;;;2.69;86.52
47811;BME280;33575;52.600;7.318;2023-01-29T10:35:04;102360.38;;;2.67;86.96
47811;BME280;33575;52.600;7.318;2023-01-29T10:37:36;102358.80;;;2.72;85.61
47811;BME280;33575;52.600;7.318;2023-01-29T10:40:01;102355.15;;;2.66;85.99
47811;BME280;33575;52.600;7.318;2023-01-29T10:42:36;102356.80;;;2.72;85.47
47811;BME280;33575;52.600;7.318;2023-01-29T10:45:14;102348.68;;;2.65;86.05
47811;BME280;33575;52.600;7.318;2023-01-29T10:47:45;102353.00;;;2.70;86.63
47811;BME280;33575;52.600;7.318;2023-01-29T10:50:12;102349.84;;;2.79;86.04
47811;BME280;33575;52.600;7.318;2023-01-29T10:52:43;102344.57;;;2.73;86.29
47811;BME280;33575;52.600;7.318;2023-01-29T10:55:16;102344.45;;;2.84;86.08
47811;BME280;33575;52.600;7.318;2023-01-29T10:57:47;102338.67;;;2.83;86.64
47811;BME280;33575;52.600;7.318;2023-01-29T11:00:09;102339.75;;;2.82;87.12
47811;BME280;33575;52.600;7.318;2023-01-29T11:02:36;102339.82;;;2.98;87.00
47811;BME280;33575;52.600;7.318;2023-01-29T11:05:18;102332.09;;;3.17;91.28
47811;BME280;33575;52.600;7.318;2023-01-29T11:07:36;102328.95;;;3.14;87.76
47811;BME280;33575;52.600;7.318;2023-01-29T11:10:10;102318.78;;;3.02;86.41
47811;BME280;33575;52.600;7.318;2023-01-29T11:12:38;102303.78;;;2.72;85.33
47811;BME280;33575;52.600;7.318;2023-01-29T11:15:17;102296.45;;;2.58;86.62
47811;BME280;33575;52.600;7.318;2023-01-29T11:17:39;102293.20;;;2.48;88.13
47811;BME280;33575;52.600;7.318;2023-01-29T11:22:46;102284.28;;;2.30;87.91
47811;BME280;33575;52.600;7.318;2023-01-29T11:25:15;102286.50;;;2.30;87.85
47811;BME280;33575;52.600;7.318;2023-01-29T11:27:44;102283.56;;;2.27;88.93
47811;BME280;33575;52.600;7.318;2023-01-29T11:30:20;102283.35;;;2.12;89.93
47811;BME280;33575;52.600;7.318;2023-01-29T11:32:42;102284.89;;;2.24;89.91
47811;BME280;33575;52.600;7.318;2023-01-29T11:35:19;102284.14;;;2.18;90.91
47811;BME280;33575;52.600;7.318;2023-01-29T11:37:44;102283.90;;;2.35;90.56
47811;BME280;33575;52.600;7.318;2023-01-29T11:42:45;102274.09;;;2.31;91.04
47811;BME280;33575;52.600;7.318;2023-01-29T11:45:24;102265.61;;;2.36;91.12
47811;BME280;33575;52.600;7.318;2023-01-29T11:47:47;102260.95;;;2.38;90.68
47811;BME280;33575;52.600;7.318;2023-01-29T11:50:22;102256.22;;;2.49;90.42
47811;BME280;33575;52.600;7.318;2023-01-29T11:52:47;102256.89;;;2.48;90.39
47811;BME280;33575;52.600;7.318;2023-01-29T11:55:19;102245.79;;;2.54;90.13
47811;BME280;33575;52.600;7.318;2023-01-29T11:57:49;102245.04;;;2.54;90.42
47811;BME280;33575;52.600;7.318;2023-01-29T12:00:21;102241.30;;;2.58;90.10
47811;BME280;33575;52.600;7.318;2023-01-29T12:02:52;102238.56;;;2.61;89.84
47811;BME280;33575;52.600;7.318;2023-01-29T12:05:21;102234.93;;;2.63;89.71
47811;BME280;33575;52.600;7.318;2023-01-29T12:07:51;102235.69;;;2.63;89.61
47811;BME280;33575;52.600;7.318;2023-01-29T12:10:29;102235.71;;;2.58;89.84
47811;BME280;33575;52.600;7.318;2023-01-29T12:12:50;102235.66;;;2.56;89.86
47811;BME280;33575;52.600;7.318;2023-01-29T12:15:22;102235.02;;;2.57;90.03
47811;BME280;33575;52.600;7.318;2023-01-29T12:17:56;102230.67;;;2.49;90.10
47811;BME280;33575;52.600;7.318;2023-01-29T12:20:25;102224.03;;;2.40;90.35
47811;BME280;33575;52.600;7.318;2023-01-29T12:22:58;102217.97;;;2.52;90.01
47811;BME280;33575;52.600;7.318;2023-01-29T12:25:28;102217.38;;;2.53;90.04
47811;BME280;33575;52.600;7.318;2023-01-29T12:27:58;102209.38;;;2.46;90.45
47811;BME280;33575;52.600;7.318;2023-01-29T12:30:27;102207.76;;;2.55;90.18
47811;BME280;33575;52.600;7.318;2023-01-29T12:32:57;102198.60;;;2.44;90.40
47811;BME280;33575;52.600;7.318;2023-01-29T12:35:26;102195.37;;;2.50;89.53
47811;BME280;33575;52.600;7.318;2023-01-29T12:37:57;102190.22;;;2.48;90.32
47811;BME280;33575;52.600;7.318;2023-01-29T12:40:27;102190.56;;;2.52;90.11
47811;BME280;33575;52.600;7.318;2023-01-29T12:43:01;102182.78;;;2.43;90.09
47811;BME280;33575;52.600;7.318;2023-01-29T12:45:26;102184.69;;;2.19;91.25
47811;BME280;33575;52.600;7.318;2023-01-29T12:47:58;102179.64;;;2.25;91.09
47811;BME280;33575;52.600;7.318;2023-01-29T12:50:27;102177.16;;;2.29;90.84
47811;BME280;33575;52.600;7.318;2023-01-29T12:52:58;102168.78;;;2.10;91.89
47811;BME280;33575;52.600;7.318;2023-01-29T12:55:29;102165.24;;;2.30;90.55
47811;BME280;33575;52.600;7.318;2023-01-29T12:57:57;102160.06;;;2.33;90.88
47811;BME280;33575;52.600;7.318;2023-01-29T13:00:28;102151.53;;;2.41;90.60
47811;BME280;33575;52.600;7.318;2023-01-29T13:03:00;102145.98;;;2.45;90.56
47811;BME280;33575;52.600;7.318;2023-01-29T13:05:29;102144.94;;;2.41;90.43
47811;BME280;33575;52.600;7.318;2023-01-29T13:08:04;102134.48;;;2.41;89.89
47811;BME280;33575;52.600;7.318;2023-01-29T13:10:31;102130.71;;;2.38;90.39
47811;BME280;33575;52.600;7.318;2023-01-29T13:13:02;102121.10;;;2.38;89.74
47811;BME280;33575;52.600;7.318;2023-01-29T13:15:32;102118.96;;;2.32;91.04
47811;BME280;33575;52.600;7.318;2023-01-29T13:20:32;102114.28;;;2.39;93.55
47811;BME280;33575;52.600;7.318;2023-01-29T13:23:21;102110.66;;;2.54;92.30
47811;BME280;33575;52.600;7.318;2023-01-29T13:25:31;102105.25;;;2.51;91.39
47811;BME280;33575;52.600;7.318;2023-01-29T13:28:02;102105.65;;;2.42;90.95
47811;BME280;33575;52.600;7.318;2023-01-29T13:30:35;102100.66;;;2.27;91.51
47811;BME280;33575;52.600;7.318;2023-01-29T13:33:04;102098.62;;;2.41;90.38